地図

経路データ

SID SEASON NUMBER BASIN SUBBASIN NAME ISO_TIME NATURE LAT LON WMO_WIND WMO_PRES WMO_AGENCY TRACK_TYPE DIST2LAND LANDFALL IFLAG USA_AGENCY USA_ATCF_ID USA_LAT USA_LON USA_RECORD USA_STATUS USA_WIND USA_PRES USA_SSHS USA_R34_NE USA_R34_SE USA_R34_SW USA_R34_NW USA_R50_NE USA_R50_SE USA_R50_SW USA_R50_NW USA_R64_NE USA_R64_SE USA_R64_SW USA_R64_NW USA_POCI USA_ROCI USA_RMW USA_EYE TOKYO_LAT TOKYO_LON TOKYO_GRADE TOKYO_WIND TOKYO_PRES TOKYO_R50_DIR TOKYO_R50_LONG TOKYO_R50_SHORT TOKYO_R30_DIR TOKYO_R30_LONG TOKYO_R30_SHORT TOKYO_LAND CMA_LAT CMA_LON CMA_CAT CMA_WIND CMA_PRES HKO_LAT HKO_LON HKO_CAT HKO_WIND HKO_PRES NEWDELHI_LAT NEWDELHI_LON NEWDELHI_GRADE NEWDELHI_WIND NEWDELHI_PRES NEWDELHI_CI NEWDELHI_DP NEWDELHI_POCI REUNION_LAT REUNION_LON REUNION_TYPE REUNION_WIND REUNION_PRES REUNION_TNUM REUNION_CI REUNION_RMW REUNION_R34_NE REUNION_R34_SE REUNION_R34_SW REUNION_R34_NW REUNION_R50_NE REUNION_R50_SE REUNION_R50_SW REUNION_R50_NW REUNION_R64_NE REUNION_R64_SE REUNION_R64_SW REUNION_R64_NW BOM_LAT BOM_LON BOM_TYPE BOM_WIND BOM_PRES BOM_TNUM BOM_CI BOM_RMW BOM_R34_NE BOM_R34_SE BOM_R34_SW BOM_R34_NW BOM_R50_NE BOM_R50_SE BOM_R50_SW BOM_R50_NW BOM_R64_NE BOM_R64_SE BOM_R64_SW BOM_R64_NW BOM_ROCI BOM_POCI BOM_EYE BOM_POS_METHOD BOM_PRES_METHOD NADI_LAT NADI_LON NADI_CAT NADI_WIND NADI_PRES WELLINGTON_LAT WELLINGTON_LON WELLINGTON_WIND WELLINGTON_PRES DS824_LAT DS824_LON DS824_STAGE DS824_WIND DS824_PRES TD9636_LAT TD9636_LON TD9636_STAGE TD9636_WIND TD9636_PRES TD9635_LAT TD9635_LON TD9635_WIND TD9635_PRES TD9635_ROCI NEUMANN_LAT NEUMANN_LON NEUMANN_CLASS NEUMANN_WIND NEUMANN_PRES MLC_LAT MLC_LON MLC_CLASS MLC_WIND MLC_PRES USA_GUST BOM_GUST BOM_GUST_PER REUNION_GUST REUNION_GUST_PER USA_SEAHGT USA_SEARAD_NE USA_SEARAD_SE USA_SEARAD_SW USA_SEARAD_NW STORM_SPEED STORM_DIR
1990334S08078 1991 118 SI MM NOT_NAMED 1990-11-29 18:00:00 TS -8.00000 78.0000 main 1584 1584 O___________O_ jtwc_sh SH041991 -8.00000 78.0000 15 -1 -8.00000 78.0000 TC 15 12 252
1990334S08078 1991 118 SI MM NOT_NAMED 1990-11-29 21:00:00 TS -8.18018 77.4300 main 1619 1619 P___________P_ SH041991 -8.18018 77.4300 17 -1 -8.18018 77.4300 TC 17 12 250
1990334S08078 1991 118 SI MM NOT_NAMED 1990-11-30 00:00:00 TS -8.40000 76.9000 main 1654 1654 O___________O_ jtwc_sh SH041991 -8.40000 76.9000 20 -1 -8.40000 76.9000 TC 20 11 243
1990334S08078 1991 118 SI MM NOT_NAMED 1990-11-30 03:00:00 TS -8.68495 76.4475 main 1701 1701 P___________P_ SH041991 -8.68495 76.4475 22 -1 -8.68495 76.4475 TC 22 8 226
1990334S08078 1991 118 SI MM NOT_NAMED 1990-11-30 06:00:00 TS -8.97778 76.2889 20 1004 reunion main 1736 1736 O____O______O_ jtwc_sh SH041991 -9.00000 76.1000 25 -1 -8.80000 77.8000 2 20 1004 9.90000 1.50000 -9.00000 76.1000 TC 25 6 204
1990334S08078 1991 118 SI MM NOT_NAMED 1990-11-30 09:00:00 TS -9.24796 76.1900 main 1761 1761 P____P______P_ SH041991 -9.32245 75.8250 25 -1 -8.95001 77.6500 2 20 1004 -9.32245 75.8250 TC 25 5 191
1990334S08078 1991 118 SI MM NOT_NAMED 1990-11-30 12:00:00 TS -9.46364 76.1909 20 1004 reunion main 1793 1793 O____O______O_ jtwc_sh SH041991 -9.60000 75.7000 25 -1 -9.10000 77.5000 2 20 1004 9.90000 1.50000 -9.60000 75.7000 TC 25 4 164
1990334S08078 1991 118 SI MM NOT_NAMED 1990-11-30 15:00:00 TS -9.60333 76.2866 main 1801 1801 P____P______P_ SH041991 -9.77999 75.7549 25 -1 -9.24999 77.3500 2 20 1004 -9.77999 75.7549 TC 25 3 153
1990334S08078 1991 118 SI MM NOT_NAMED 1990-11-30 18:00:00 TS -9.73333 76.3333 20 1004 reunion main 1811 1811 O____O______O_ jtwc_sh SH041991 -9.90000 75.9000 25 -1 -9.40000 77.2000 2 20 1004 9.90000 1.50000 -9.90000 75.9000 TC 25 3 163
1990334S08078 1991 118 SI MM NOT_NAMED 1990-11-30 21:00:00 TS -9.84250 76.3550 main 1819 1819 P____P______P_ SH041991 -9.99250 76.0075 25 -1 -9.54249 77.0500 2 20 1003 -9.99250 76.0075 TC 25 2 169
1990334S08078 1991 118 SI MM NOT_NAMED 1990-12-01 00:00:00 TS -9.96667 76.3667 20 1002 reunion main 1841 1841 O____O______O_ jtwc_sh SH041991 -10.1000 76.1000 25 -1 -9.70000 76.9000 2 20 1002 9.90000 1.50000 -10.1000 76.1000 TC 25 3 0
1990334S08078 1991 118 SI MM NOT_NAMED 1990-12-01 03:00:00 TS -10.1567 76.3800 main 1863 1863 P____P______P_ SH041991 -10.2925 76.1949 25 -1 -9.88499 76.7500 2 20 1002 -10.2925 76.1949 TC 25 4 185
1990334S08078 1991 118 SI MM NOT_NAMED 1990-12-01 06:00:00 TS -10.3667 76.3333 20 1002 reunion main 1887 1887 O____O______O_ jtwc_sh SH041991 -10.5000 76.2000 25 -1 -10.1000 76.6000 2 20 1002 9.90000 1.50000 -10.5000 76.2000 TC 25 4 208
1990334S08078 1991 118 SI MM NOT_NAMED 1990-12-01 09:00:00 TS -10.5475 76.1700 main 1901 1901 P____P______P_ SH041991 -10.6500 76.0375 25 -1 -10.3425 76.4350 2 20 1002 -10.6500 76.0375 TC 25 5 225
1990334S08078 1991 118 SI MM NOT_NAMED 1990-12-01 12:00:00 TS -10.7333 75.9667 20 1002 reunion main 1928 1928 O____O______O_ jtwc_sh SH041991 -10.8000 75.8000 25 -1 -10.6000 76.3000 2 20 1002 9.90000 1.50000 -10.8000 75.8000 TC 25 5 223
1990334S08078 1991 118 SI MM NOT_NAMED 1990-12-01 15:00:00 TS -10.9400 75.7942 main 1956 1956 P____P______P_ SH041991 -10.9850 75.5775 25 -1 -10.8500 76.2275 2 22 1001 -10.9850 75.5775 TC 25 5 214
1990334S08078 1991 118 SI MM NOT_NAMED 1990-12-01 18:00:00 TS -11.1667 75.6667 24 1000 reunion main 1991 1991 O____O______O_ jtwc_sh SH041991 -11.2000 75.4000 25 -1 -11.1000 76.2000 2 24 1000 9.90000 2.00000 -11.2000 75.4000 TC 25 5 204
1990334S08078 1991 118 SI MM NOT_NAMED 1990-12-01 21:00:00 TS -11.4041 75.5809 main 2015 2015 P____P______P_ SH041991 -11.4349 75.2826 25 -1 -11.3425 76.1775 2 24 1000 -11.4349 75.2826 TC 25 5 188
1990334S08078 1991 118 SI MM NOT_NAMED 1990-12-02 00:00:00 TS -11.6667 75.6000 24 1000 reunion main 2048 2048 O____O______O_ jtwc_sh SH041991 -11.7000 75.3000 25 -1 -11.6000 76.2000 2 24 1000 9.90000 2.00000 -11.7000 75.3000 TC 25 6 163
1990334S08078 1991 118 SI MM NOT_NAMED 1990-12-02 03:00:00 TS -11.9592 75.7525 main 2074 2074 P____P______P_ SH041991 -11.9925 75.4900 25 -1 -11.8925 76.2775 2 26 998 -11.9925 75.4900 TC 25 7 147
1990334S08078 1991 118 SI MM NOT_NAMED 1990-12-02 06:00:00 TS -12.2667 76.0000 28 997 reunion main 2101 2099 O____O______O_ jtwc_sh SH041991 -12.3000 75.8000 25 -1 -12.2000 76.4000 2 28 997 9.90000 2.50000 -12.3000 75.8000 TC 25 8 141
1990334S08078 1991 118 SI MM NOT_NAMED 1990-12-02 09:00:00 TS -12.5566 76.2485 main 2129 2126 P____P______P_ SH041991 -12.5924 76.1201 25 -1 -12.4849 76.5052 2 28 997 -12.5924 76.1201 TC 25 8 137
1990334S08078 1991 118 SI MM NOT_NAMED 1990-12-02 12:00:00 TS -12.8667 76.5667 28 997 reunion main 2152 2152 O____O______O_ jtwc_sh SH041991 -12.9000 76.5000 25 -1 -12.8000 76.7000 2 28 997 9.90000 2.50000 -12.9000 76.5000 TC 25 10 134
1990334S08078 1991 118 SI MM NOT_NAMED 1990-12-02 15:00:00 TS -13.2283 76.9675 main 2176 2176 P____P______P_ SH041991 -13.2500 76.9350 27 -1 -13.1849 77.0326 2 28 997 -13.2500 76.9350 TC 27 11 131
1990334S08078 1991 118 SI MM NOT_NAMED 1990-12-02 18:00:00 TS -13.6000 77.4333 28 997 reunion main 2213 2211 O____O______O_ jtwc_sh SH041991 -13.6000 77.4000 30 -1 -13.6000 77.5000 2 28 997 9.90000 2.50000 -13.6000 77.4000 TC 30 12 127
1990334S08078 1991 118 SI MM NOT_NAMED 1990-12-02 21:00:00 TS -13.9383 77.9210 main 2238 2238 P____P______P_ SH041991 -13.9074 77.8502 40 0 -14.0000 78.0626 2 28 997 -13.9074 77.8502 TC 40 12 124
1990334S08078 1991 118 SI MM NOT_NAMED 1990-12-03 00:00:00 TS -14.2667 78.4333 28 997 reunion main 2276 2273 O____O______O_ jtwc_sh SH041991 -14.2000 78.3000 50 0 -14.4000 78.7000 2 28 997 9.90000 2.50000 -14.2000 78.3000 TC 50 12 123
1990334S08078 1991 118 SI MM NOT_NAMED 1990-12-03 03:00:00 TS -14.6026 78.9725 main 2303 2303 P____P______P_ SH041991 -14.5000 78.7651 52 0 -14.8077 79.3874 2 28 997 -14.5000 78.7651 TC 52 12 124
1990334S08078 1991 118 SI MM NOT_NAMED 1990-12-03 06:00:00 TS -14.9333 79.4667 28 997 reunion main 2333 2333 O____O______O_ jtwc_sh SH041991 -14.8000 79.2000 55 0 -15.2000 80.0000 2 28 997 9.90000 2.50000 -14.8000 79.2000 TC 55 11 128
1990334S08078 1991 118 SI MM NOT_NAMED 1990-12-03 09:00:00 TS -15.2699 79.8642 main 2376 2376 P____P______P_ SH041991 -15.1150 79.5875 55 0 -15.5797 80.4177 2 28 997 -15.1150 79.5875 TC 55 9 133
1990334S08078 1991 118 SI MM NOT_NAMED 1990-12-03 12:00:00 TS -15.5667 80.1667 main 2408 2408 O____O______O_ jtwc_sh SH041991 -15.4000 79.9000 55 0 -15.9000 80.7000 2 28 997 9.90000 2.50000 -15.4000 79.9000 TC 55 7 135
1990334S08078 1991 118 SI MM NOT_NAMED 1990-12-03 15:00:00 TS -15.7766 80.3943 main 2431 2430 P____P______P_ SH041991 -15.6074 80.1227 50 0 -16.1149 80.9377 2 26 998 -15.6074 80.1227 TC 50 6 136
1990334S08078 1991 118 SI MM NOT_NAMED 1990-12-03 18:00:00 TS -15.9667 80.5667 main 2453 2451 O____O______O_ jtwc_sh SH041991 -15.8000 80.3000 45 0 -16.3000 81.1000 2 24 1000 9.90000 2.00000 -15.8000 80.3000 TC 45 6 143
1990334S08078 1991 118 SI MM NOT_NAMED 1990-12-03 21:00:00 TS -16.2141 80.7384 main 2459 2459 P____P______P_ SH041991 -16.0500 80.5000 40 0 -16.5425 81.2151 2 24 1000 -16.0500 80.5000 TC 40 6 146
1990334S08078 1991 118 SI MM NOT_NAMED 1990-12-04 00:00:00 TS -16.5000 80.9400 main 2472 2472 O____O______O_ jtwc_sh SH041991 -16.3000 80.7000 35 0 -16.8000 81.3000 2 24 1000 9.90000 2.00000 -16.3000 80.7000 TC 35 7 145
1990334S08078 1991 118 SI MM NOT_NAMED 1990-12-04 03:00:00 TS -16.7775 81.1537 main 2495 2493 P____P______P_ SH041991 -16.5125 80.8999 32 -1 -17.0425 81.4075 2 22 1001 -16.5125 80.8999 TC 32 7 146
1990334S08078 1991 118 SI MM NOT_NAMED 1990-12-04 06:00:00 TS -17.1000 81.3667 main 2509 2504 O____O______O_ jtwc_sh SH041991 -16.7000 81.1000 30 -1 -17.3000 81.5000 2 20 1002 9.90000 1.50000 -16.7000 81.1000 TC 30 9 156
1990334S08078 1991 118 SI MM NOT_NAMED 1990-12-04 09:00:00 TS -17.6000 81.5426 main 2508 2508 _____P________ SH041991 -1 -17.6000 81.5426 2 20 1002 TC 8 164
1990334S08078 1991 118 SI MM NOT_NAMED 1990-12-04 12:00:00 TS -17.9000 81.6000 main 2512 2511 _____O________ -1 -17.9000 81.6000 2 20 1002 9.90000 1.50000 6 162
1990334S08078 1991 118 SI MM NOT_NAMED 1990-12-04 15:00:00 TS -18.1575 81.7350 main 2517 2517 _____P________ -1 -18.1575 81.7350 2 20 1003 6 150
1990334S08078 1991 118 SI MM NOT_NAMED 1990-12-04 18:00:00 TS -18.4000 81.9000 main 2535 2533 _____O________ -1 -18.4000 81.9000 2 20 1004 9.90000 1.50000 6 150
1990334S08078 1991 118 SI MM NOT_NAMED 1990-12-04 21:00:00 TS -18.6575 82.0425 main 2540 2540 _____P________ -1 -18.6575 82.0425 2 20 1004 6 150
1990334S08078 1991 118 SI MM NOT_NAMED 1990-12-05 00:00:00 TS -18.9000 82.2000 main 2558 2558 _____O________ -1 -18.9000 82.2000 2 20 1004 9.90000 1.50000 6 142
1990334S08078 1991 118 SI MM NOT_NAMED 1990-12-05 03:00:00 TS -19.0925 82.4001 main 2576 2576 _____P________ -1 -19.0925 82.4001 2 20 1004 6 137
1990334S08078 1991 118 SI MM NOT_NAMED 1990-12-05 06:00:00 TS -19.3000 82.6000 main 2594 2593 _____O________ -1 -19.3000 82.6000 2 20 1004 9.90000 1.50000 6 144
1990334S08078 1991 118 SI MM NOT_NAMED 1990-12-05 09:00:00 TS -19.5700 82.7725 main 2611 2610 _____P________ -1 -19.5700 82.7725 2 20 1004 7 155
1990334S08078 1991 118 SI MM NOT_NAMED 1990-12-05 12:00:00 TS -19.9000 82.9000 main 2618 2616 _____O________ -1 -19.9000 82.9000 2 20 1004 9.90000 1.50000 7 165
1990334S08078 1991 118 SI MM NOT_NAMED 1990-12-05 15:00:00 TS -20.2700 82.9725 main 2625 2622 _____P________ -1 -20.2700 82.9725 2 20 1004 8 173
1990334S08078 1991 118 SI MM NOT_NAMED 1990-12-05 18:00:00 TS -20.7000 83.0000 main 2622 2619 _____O________ -1 -20.7000 83.0000 2 20 1004 9.90000 1.50000 9 0
1990334S08078 1991 118 SI MM NOT_NAMED 1990-12-05 21:00:00 TS -21.1775 82.9927 main 2619 2617 _____P________ -1 -21.1775 82.9927 2 20 1004 10 179
1990334S08078 1991 118 SI MM NOT_NAMED 1990-12-06 00:00:00 TS -21.7000 83.0000 main 2617 2616 _____O________ -1 -21.7000 83.0000 2 20 1004 9.90000 1.50000 11 173
1990334S08078 1991 118 SI MM NOT_NAMED 1990-12-06 03:00:00 TS -22.2575 83.1368 main 2626 2626 _____P________ -1 -22.2575 83.1368 2 20 1004 11 170
1990334S08078 1991 118 SI MM NOT_NAMED 1990-12-06 06:00:00 TS -22.8000 83.2000 main 2637 2628 _____O________ -1 -22.8000 83.2000 2 20 1004 9.90000 1.50000 10 185
1990334S08078 1991 118 SI MM NOT_NAMED 1990-12-06 09:00:00 TS -23.2873 83.0402 main 2619 2590 _____P________ -1 -23.2873 83.0402 2 20 1004 10 207
1990334S08078 1991 118 SI MM NOT_NAMED 1990-12-06 12:00:00 TS -23.7000 82.7000 main 2590 2552 _____O________ -1 -23.7000 82.7000 2 20 1004 9.90000 1.50000 11 224
1990334S08078 1991 118 SI MM NOT_NAMED 1990-12-06 15:00:00 TS -24.0376 82.2375 main 2542 2494 _____P________ -1 -24.0376 82.2375 2 20 1004 11 237
1990334S08078 1991 118 SI MM NOT_NAMED 1990-12-06 18:00:00 TS -24.3000 81.7000 main 2494 2446 _____O________ -1 -24.3000 81.7000 2 20 1004 9.90000 1.50000 11 243
1990334S08078 1991 118 SI MM NOT_NAMED 1990-12-06 21:00:00 TS -24.5148 81.2071 main 2446 2399 _____P________ -1 -24.5148 81.2071 2 10 246
1990334S08078 1991 118 SI MM NOT_NAMED 1990-12-07 00:00:00 TS -24.7000 80.7000 main 2399 2352 _____O________ -1 -24.7000 80.7000 6 9.90000 10 248
1990334S08078 1991 118 SI MM NOT_NAMED 1990-12-07 03:00:00 TS -24.8955 80.1605 main 2352 2295 _____P________ -1 -24.8955 80.1605 6 11 248
1990334S08078 1991 118 SI MM NOT_NAMED 1990-12-07 06:00:00 TS -25.1000 79.6000 reunion main 2295 _____O________ -1 -25.1000 79.6000 6 9.90000 11 248

IBTrACS Databaseについて

本データベースは、米国NOAAが公開する1842年以降の世界の熱帯低気圧のベストトラックデータアーカイブInternational Best Track Archive for Climate Stewardship (IBTrACS)を、ウェブで閲覧しやすい形式に変換したものです。

最終更新日:2021-10-08